sensor_id;sensor_type;location;lat;lon;timestamp;temperature;humidity
13203;DHT22;6666;51.626;7.530;2023-08-01T00:00:56;16.10;99.90
13203;DHT22;6666;51.626;7.530;2023-08-01T00:03:24;16.10;99.90
13203;DHT22;6666;51.626;7.530;2023-08-01T00:05:52;16.00;99.90
13203;DHT22;6666;51.626;7.530;2023-08-01T00:08:22;16.00;99.90
13203;DHT22;6666;51.626;7.530;2023-08-01T00:10:50;16.10;99.90
13203;DHT22;6666;51.626;7.530;2023-08-01T00:13:18;16.10;99.90
13203;DHT22;6666;51.626;7.530;2023-08-01T00:15:46;16.10;99.90
13203;DHT22;6666;51.626;7.530;2023-08-01T00:18:34;16.20;99.90
13203;DHT22;6666;51.626;7.530;2023-08-01T00:21:02;16.20;99.90
13203;DHT22;6666;51.626;7.530;2023-08-01T00:23:32;16.20;99.90
13203;DHT22;6666;51.626;7.530;2023-08-01T00:26:00;16.20;99.90
13203;DHT22;6666;51.626;7.530;2023-08-01T00:28:29;16.10;99.90
13203;DHT22;6666;51.626;7.530;2023-08-01T00:31:04;16.10;99.90
13203;DHT22;6666;51.626;7.530;2023-08-01T00:33:34;16.10;99.90
13203;DHT22;6666;51.626;7.530;2023-08-01T00:36:02;16.10;99.90
13203;DHT22;6666;51.626;7.530;2023-08-01T00:38:36;16.10;99.90
13203;DHT22;6666;51.626;7.530;2023-08-01T00:41:04;16.10;99.90
13203;DHT22;6666;51.626;7.530;2023-08-01T00:43:32;16.10;99.90
13203;DHT22;6666;51.626;7.530;2023-08-01T00:46:04;16.10;99.90
13203;DHT22;6666;51.626;7.530;2023-08-01T00:48:35;16.20;99.90
13203;DHT22;6666;51.626;7.530;2023-08-01T00:51:05;16.10;99.90
13203;DHT22;6666;51.626;7.530;2023-08-01T00:53:33;16.10;99.90
13203;DHT22;6666;51.626;7.530;2023-08-01T00:56:02;16.10;99.90
13203;DHT22;6666;51.626;7.530;2023-08-01T00:58:31;16.10;99.90
13203;DHT22;6666;51.626;7.530;2023-08-01T01:00:59;16.10;99.90
13203;DHT22;6666;51.626;7.530;2023-08-01T01:03:28;16.10;99.90
13203;DHT22;6666;51.626;7.530;2023-08-01T01:06:09;16.10;99.90
13203;DHT22;6666;51.626;7.530;2023-08-01T01:08:37;16.10;99.90
13203;DHT22;6666;51.626;7.530;2023-08-01T01:11:06;16.10;99.90
13203;DHT22;6666;51.626;7.530;2023-08-01T01:13:34;16.10;99.90
13203;DHT22;6666;51.626;7.530;2023-08-01T01:16:03;16.00;99.90
13203;DHT22;6666;51.626;7.530;2023-08-01T01:18:31;16.00;99.90
13203;DHT22;6666;51.626;7.530;2023-08-01T01:21:01;16.00;99.90
13203;DHT22;6666;51.626;7.530;2023-08-01T01:23:30;16.00;99.90
13203;DHT22;6666;51.626;7.530;2023-08-01T01:25:58;16.00;99.90
13203;DHT22;6666;51.626;7.530;2023-08-01T01:28:27;16.10;99.90
13203;DHT22;6666;51.626;7.530;2023-08-01T01:30:56;16.00;99.90
13203;DHT22;6666;51.626;7.530;2023-08-01T01:33:26;16.00;99.90
13203;DHT22;6666;51.626;7.530;2023-08-01T01:35:54;16.10;99.90
13203;DHT22;6666;51.626;7.530;2023-08-01T01:38:24;16.10;99.90
13203;DHT22;6666;51.626;7.530;2023-08-01T01:40:52;16.10;99.90
13203;DHT22;6666;51.626;7.530;2023-08-01T01:43:20;16.10;99.90
13203;DHT22;6666;51.626;7.530;2023-08-01T01:45:48;16.00;99.90
13203;DHT22;6666;51.626;7.530;2023-08-01T01:48:16;16.10;99.90
13203;DHT22;6666;51.626;7.530;2023-08-01T01:50:44;16.10;99.90
13203;DHT22;6666;51.626;7.530;2023-08-01T01:53:12;16.10;99.90
13203;DHT22;6666;51.626;7.530;2023-08-01T01:55:42;16.00;99.90
13203;DHT22;6666;51.626;7.530;2023-08-01T01:58:10;16.00;99.90
13203;DHT22;6666;51.626;7.530;2023-08-01T02:00:38;16.00;99.90
13203;DHT22;6666;51.626;7.530;2023-08-01T02:03:07;16.00;99.90
13203;DHT22;6666;51.626;7.530;2023-08-01T02:05:37;16.00;99.90
13203;DHT22;6666;51.626;7.530;2023-08-01T02:08:05;16.00;99.90
13203;DHT22;6666;51.626;7.530;2023-08-01T02:10:33;16.00;99.90
13203;DHT22;6666;51.626;7.530;2023-08-01T02:13:03;16.00;99.90
13203;DHT22;6666;51.626;7.530;2023-08-01T02:15:31;16.10;99.90
13203;DHT22;6666;51.626;7.530;2023-08-01T02:17:59;16.00;99.90
13203;DHT22;6666;51.626;7.530;2023-08-01T02:20:27;16.00;99.90
13203;DHT22;6666;51.626;7.530;2023-08-01T02:22:56;16.00;99.90
13203;DHT22;6666;51.626;7.530;2023-08-01T02:25:24;16.00;99.90
13203;DHT22;6666;51.626;7.530;2023-08-01T02:27:52;16.00;99.90
13203;DHT22;6666;51.626;7.530;2023-08-01T02:30:21;16.00;99.90
13203;DHT22;6666;51.626;7.530;2023-08-01T02:32:50;16.00;99.90
13203;DHT22;6666;51.626;7.530;2023-08-01T02:35:18;16.00;99.90
13203;DHT22;6666;51.626;7.530;2023-08-01T02:37:46;16.00;99.90
13203;DHT22;6666;51.626;7.530;2023-08-01T02:40:14;16.00;99.90
13203;DHT22;6666;51.626;7.530;2023-08-01T02:42:42;16.00;99.90
13203;DHT22;6666;51.626;7.530;2023-08-01T02:45:10;16.00;99.90
13203;DHT22;6666;51.626;7.530;2023-08-01T02:47:40;16.10;99.90
13203;DHT22;6666;51.626;7.530;2023-08-01T02:50:09;16.00;99.90
13203;DHT22;6666;51.626;7.530;2023-08-01T02:52:37;16.10;99.90
13203;DHT22;6666;51.626;7.530;2023-08-01T02:55:06;16.10;99.90
13203;DHT22;6666;51.626;7.530;2023-08-01T02:57:35;16.00;99.90
13203;DHT22;6666;51.626;7.530;2023-08-01T03:00:04;16.00;99.90
13203;DHT22;6666;51.626;7.530;2023-08-01T03:02:33;16.00;99.90
13203;DHT22;6666;51.626;7.530;2023-08-01T03:05:03;16.00;99.90
13203;DHT22;6666;51.626;7.530;2023-08-01T03:07:31;16.00;99.90
13203;DHT22;6666;51.626;7.530;2023-08-01T03:09:59;16.00;99.90
13203;DHT22;6666;51.626;7.530;2023-08-01T03:12:28;16.00;99.90
13203;DHT22;6666;51.626;7.530;2023-08-01T03:14:56;16.00;99.90
13203;DHT22;6666;51.626;7.530;2023-08-01T03:17:24;16.10;99.90
13203;DHT22;6666;51.626;7.530;2023-08-01T03:19:52;16.10;99.90
13203;DHT22;6666;51.626;7.530;2023-08-01T03:22:22;16.00;99.90
13203;DHT22;6666;51.626;7.530;2023-08-01T03:24:50;16.00;99.90
13203;DHT22;6666;51.626;7.530;2023-08-01T03:27:18;16.00;99.90
13203;DHT22;6666;51.626;7.530;2023-08-01T03:29:46;16.00;99.90
13203;DHT22;6666;51.626;7.530;2023-08-01T03:32:14;16.00;99.90
13203;DHT22;6666;51.626;7.530;2023-08-01T03:34:42;16.00;99.90
13203;DHT22;6666;51.626;7.530;2023-08-01T03:37:10;16.00;99.90
13203;DHT22;6666;51.626;7.530;2023-08-01T03:39:42;16.00;99.90
13203;DHT22;6666;51.626;7.530;2023-08-01T03:42:10;16.00;99.90
13203;DHT22;6666;51.626;7.530;2023-08-01T03:44:38;16.00;99.90
13203;DHT22;6666;51.626;7.530;2023-08-01T03:47:07;16.00;99.90
13203;DHT22;6666;51.626;7.530;2023-08-01T03:49:35;16.00;99.90
13203;DHT22;6666;51.626;7.530;2023-08-01T03:52:04;16.00;99.90
13203;DHT22;6666;51.626;7.530;2023-08-01T03:54:32;16.00;99.90
13203;DHT22;6666;51.626;7.530;2023-08-01T03:57:02;16.00;99.90
13203;DHT22;6666;51.626;7.530;2023-08-01T03:59:30;16.00;99.90
13203;DHT22;6666;51.626;7.530;2023-08-01T04:01:58;16.00;99.90
13203;DHT22;6666;51.626;7.530;2023-08-01T04:04:26;15.90;99.90
13203;DHT22;6666;51.626;7.530;2023-08-01T04:06:55;15.90;99.90
13203;DHT22;6666;51.626;7.530;2023-08-01T04:09:23;15.90;99.90
13203;DHT22;6666;51.626;7.530;2023-08-01T04:11:51;15.90;99.90
13203;DHT22;6666;51.626;7.530;2023-08-01T04:14:20;15.90;99.90
13203;DHT22;6666;51.626;7.530;2023-08-01T04:16:48;15.90;99.90
13203;DHT22;6666;51.626;7.530;2023-08-01T04:19:17;16.00;99.90
13203;DHT22;6666;51.626;7.530;2023-08-01T04:21:45;16.00;99.90
13203;DHT22;6666;51.626;7.530;2023-08-01T04:24:13;15.90;99.90
13203;DHT22;6666;51.626;7.530;2023-08-01T04:26:41;16.00;99.90
13203;DHT22;6666;51.626;7.530;2023-08-01T04:29:09;16.00;99.90
13203;DHT22;6666;51.626;7.530;2023-08-01T04:31:39;16.00;99.90
13203;DHT22;6666;51.626;7.530;2023-08-01T04:34:07;16.00;99.90
13203;DHT22;6666;51.626;7.530;2023-08-01T04:36:35;16.00;99.90
13203;DHT22;6666;51.626;7.530;2023-08-01T04:39:03;15.90;99.90
13203;DHT22;6666;51.626;7.530;2023-08-01T04:41:32;16.00;99.90
13203;DHT22;6666;51.626;7.530;2023-08-01T04:44:00;16.00;99.90
13203;DHT22;6666;51.626;7.530;2023-08-01T04:46:28;15.90;99.90
13203;DHT22;6666;51.626;7.530;2023-08-01T04:48:58;15.90;99.90
13203;DHT22;6666;51.626;7.530;2023-08-01T04:51:26;15.90;99.90
13203;DHT22;6666;51.626;7.530;2023-08-01T04:53:54;15.90;99.90
13203;DHT22;6666;51.626;7.530;2023-08-01T04:56:23;15.90;99.90
13203;DHT22;6666;51.626;7.530;2023-08-01T04:58:51;15.90;99.90
13203;DHT22;6666;51.626;7.530;2023-08-01T05:01:19;15.90;99.90
13203;DHT22;6666;51.626;7.530;2023-08-01T05:03:47;15.90;99.90
13203;DHT22;6666;51.626;7.530;2023-08-01T05:06:17;16.00;99.90
13203;DHT22;6666;51.626;7.530;2023-08-01T05:08:45;15.80;99.90
13203;DHT22;6666;51.626;7.530;2023-08-01T05:11:13;15.90;99.90
13203;DHT22;6666;51.626;7.530;2023-08-01T05:13:41;15.90;99.90
13203;DHT22;6666;51.626;7.530;2023-08-01T05:16:09;15.80;99.90
13203;DHT22;6666;51.626;7.530;2023-08-01T05:18:37;15.80;99.90
13203;DHT22;6666;51.626;7.530;2023-08-01T05:21:05;15.90;99.90
13203;DHT22;6666;51.626;7.530;2023-08-01T05:23:35;15.80;99.90
13203;DHT22;6666;51.626;7.530;2023-08-01T05:26:03;15.90;99.90
13203;DHT22;6666;51.626;7.530;2023-08-01T05:28:31;15.80;99.90
13203;DHT22;6666;51.626;7.530;2023-08-01T05:30:59;15.80;99.90
13203;DHT22;6666;51.626;7.530;2023-08-01T05:33:28;15.90;99.90
13203;DHT22;6666;51.626;7.530;2023-08-01T05:35:56;15.90;99.90
13203;DHT22;6666;51.626;7.530;2023-08-01T05:38:24;15.80;99.90
13203;DHT22;6666;51.626;7.530;2023-08-01T05:40:53;15.80;99.90
13203;DHT22;6666;51.626;7.530;2023-08-01T05:43:21;15.80;99.90
13203;DHT22;6666;51.626;7.530;2023-08-01T05:45:49;15.90;99.90
13203;DHT22;6666;51.626;7.530;2023-08-01T05:48:19;15.90;99.90
13203;DHT22;6666;51.626;7.530;2023-08-01T05:50:47;16.00;99.90
13203;DHT22;6666;51.626;7.530;2023-08-01T05:53:16;16.00;99.90
13203;DHT22;6666;51.626;7.530;2023-08-01T05:55:44;16.00;99.90
13203;DHT22;6666;51.626;7.530;2023-08-01T05:58:13;16.10;99.90
13203;DHT22;6666;51.626;7.530;2023-08-01T06:00:41;16.10;99.90
13203;DHT22;6666;51.626;7.530;2023-08-01T06:03:09;16.10;99.90
13203;DHT22;6666;51.626;7.530;2023-08-01T06:05:38;16.10;99.90
13203;DHT22;6666;51.626;7.530;2023-08-01T06:08:07;16.20;99.90
13203;DHT22;6666;51.626;7.530;2023-08-01T06:10:35;16.30;99.90
13203;DHT22;6666;51.626;7.530;2023-08-01T06:13:04;16.40;99.90
13203;DHT22;6666;51.626;7.530;2023-08-01T06:15:33;16.50;99.90
13203;DHT22;6666;51.626;7.530;2023-08-01T06:18:02;16.50;99.90
13203;DHT22;6666;51.626;7.530;2023-08-01T06:20:30;16.60;99.90
13203;DHT22;6666;51.626;7.530;2023-08-01T06:22:58;16.60;99.90
13203;DHT22;6666;51.626;7.530;2023-08-01T06:25:27;16.50;99.90
13203;DHT22;6666;51.626;7.530;2023-08-01T06:27:55;16.50;99.90
13203;DHT22;6666;51.626;7.530;2023-08-01T06:30:24;16.50;99.90
13203;DHT22;6666;51.626;7.530;2023-08-01T06:32:53;16.50;99.90
13203;DHT22;6666;51.626;7.530;2023-08-01T06:35:22;16.50;99.90
13203;DHT22;6666;51.626;7.530;2023-08-01T06:37:50;16.40;99.90
13203;DHT22;6666;51.626;7.530;2023-08-01T06:40:19;16.40;99.90
13203;DHT22;6666;51.626;7.530;2023-08-01T06:42:47;16.30;99.90
13203;DHT22;6666;51.626;7.530;2023-08-01T06:45:15;16.30;99.90
13203;DHT22;6666;51.626;7.530;2023-08-01T06:47:43;16.30;99.90
13203;DHT22;6666;51.626;7.530;2023-08-01T06:50:13;16.30;99.90
13203;DHT22;6666;51.626;7.530;2023-08-01T06:52:41;16.50;99.90
13203;DHT22;6666;51.626;7.530;2023-08-01T06:55:09;16.60;99.90
13203;DHT22;6666;51.626;7.530;2023-08-01T06:57:37;16.60;99.90
13203;DHT22;6666;51.626;7.530;2023-08-01T07:00:06;16.70;99.90
13203;DHT22;6666;51.626;7.530;2023-08-01T07:02:35;16.70;99.90
13203;DHT22;6666;51.626;7.530;2023-08-01T07:05:04;16.70;99.90
13203;DHT22;6666;51.626;7.530;2023-08-01T07:07:34;16.70;99.90
13203;DHT22;6666;51.626;7.530;2023-08-01T07:10:02;16.60;99.90
13203;DHT22;6666;51.626;7.530;2023-08-01T07:12:30;16.60;99.90
13203;DHT22;6666;51.626;7.530;2023-08-01T07:14:58;16.60;99.90
13203;DHT22;6666;51.626;7.530;2023-08-01T07:17:28;16.70;99.90
13203;DHT22;6666;51.626;7.530;2023-08-01T07:19:56;16.70;99.90
13203;DHT22;6666;51.626;7.530;2023-08-01T07:22:25;16.80;99.90
13203;DHT22;6666;51.626;7.530;2023-08-01T07:24:54;16.90;99.90
13203;DHT22;6666;51.626;7.530;2023-08-01T07:27:22;16.80;99.90
13203;DHT22;6666;51.626;7.530;2023-08-01T07:29:51;16.70;99.90
13203;DHT22;6666;51.626;7.530;2023-08-01T07:32:19;16.60;99.90
13203;DHT22;6666;51.626;7.530;2023-08-01T07:34:48;16.60;99.90
13203;DHT22;6666;51.626;7.530;2023-08-01T07:37:16;16.80;99.90
13203;DHT22;6666;51.626;7.530;2023-08-01T07:39:45;17.00;99.90
13203;DHT22;6666;51.626;7.530;2023-08-01T07:42:14;17.50;99.90
13203;DHT22;6666;51.626;7.530;2023-08-01T07:44:42;17.80;99.90
13203;DHT22;6666;51.626;7.530;2023-08-01T07:47:10;17.70;99.90
13203;DHT22;6666;51.626;7.530;2023-08-01T07:49:39;17.40;99.90
13203;DHT22;6666;51.626;7.530;2023-08-01T07:52:07;17.90;99.90
13203;DHT22;6666;51.626;7.530;2023-08-01T07:54:38;18.10;99.90
13203;DHT22;6666;51.626;7.530;2023-08-01T07:57:06;18.30;99.90
13203;DHT22;6666;51.626;7.530;2023-08-01T07:59:35;18.20;99.90
13203;DHT22;6666;51.626;7.530;2023-08-01T08:02:04;18.40;99.90
13203;DHT22;6666;51.626;7.530;2023-08-01T08:04:33;18.40;99.90
13203;DHT22;6666;51.626;7.530;2023-08-01T08:07:01;18.40;99.90
13203;DHT22;6666;51.626;7.530;2023-08-01T08:09:29;18.80;99.90
13203;DHT22;6666;51.626;7.530;2023-08-01T08:11:57;18.50;99.90
13203;DHT22;6666;51.626;7.530;2023-08-01T08:14:25;18.20;99.90
13203;DHT22;6666;51.626;7.530;2023-08-01T08:16:55;18.00;99.90
13203;DHT22;6666;51.626;7.530;2023-08-01T08:19:23;18.30;99.90
13203;DHT22;6666;51.626;7.530;2023-08-01T08:21:52;18.40;99.90
13203;DHT22;6666;51.626;7.530;2023-08-01T08:24:20;18.60;99.90
13203;DHT22;6666;51.626;7.530;2023-08-01T08:26:48;18.50;99.90
13203;DHT22;6666;51.626;7.530;2023-08-01T08:29:16;18.20;99.90
13203;DHT22;6666;51.626;7.530;2023-08-01T08:31:44;18.00;99.90
13203;DHT22;6666;51.626;7.530;2023-08-01T08:34:14;18.00;99.90
13203;DHT22;6666;51.626;7.530;2023-08-01T08:36:42;18.20;99.90
13203;DHT22;6666;51.626;7.530;2023-08-01T08:39:10;18.40;99.90
13203;DHT22;6666;51.626;7.530;2023-08-01T08:41:45;18.60;99.90
13203;DHT22;6666;51.626;7.530;2023-08-01T08:44:15;18.80;99.90
13203;DHT22;6666;51.626;7.530;2023-08-01T08:46:44;19.00;99.90
13203;DHT22;6666;51.626;7.530;2023-08-01T08:49:14;18.90;99.90
13203;DHT22;6666;51.626;7.530;2023-08-01T08:51:44;18.60;99.90
13203;DHT22;6666;51.626;7.530;2023-08-01T08:54:13;18.10;99.90
13203;DHT22;6666;51.626;7.530;2023-08-01T08:56:42;17.90;99.90
13203;DHT22;6666;51.626;7.530;2023-08-01T08:59:10;18.00;99.90
13203;DHT22;6666;51.626;7.530;2023-08-01T09:01:39;18.40;99.90
13203;DHT22;6666;51.626;7.530;2023-08-01T09:04:08;18.70;99.90
13203;DHT22;6666;51.626;7.530;2023-08-01T09:06:43;19.00;99.90
13203;DHT22;6666;51.626;7.530;2023-08-01T09:09:16;19.00;99.90
13203;DHT22;6666;51.626;7.530;2023-08-01T09:11:46;19.10;99.90
13203;DHT22;6666;51.626;7.530;2023-08-01T09:14:16;19.00;99.90
13203;DHT22;6666;51.626;7.530;2023-08-01T09:16:45;18.90;99.90
13203;DHT22;6666;51.626;7.530;2023-08-01T09:19:16;18.80;99.90
13203;DHT22;6666;51.626;7.530;2023-08-01T09:21:47;18.90;99.90
13203;DHT22;6666;51.626;7.530;2023-08-01T09:24:17;19.10;99.90
13203;DHT22;6666;51.626;7.530;2023-08-01T09:26:47;19.40;99.90
13203;DHT22;6666;51.626;7.530;2023-08-01T09:29:16;19.30;99.90
13203;DHT22;6666;51.626;7.530;2023-08-01T09:31:45;19.40;99.90
13203;DHT22;6666;51.626;7.530;2023-08-01T09:34:20;19.40;99.90
13203;DHT22;6666;51.626;7.530;2023-08-01T09:36:50;19.40;99.90
13203;DHT22;6666;51.626;7.530;2023-08-01T09:39:20;19.50;99.90
13203;DHT22;6666;51.626;7.530;2023-08-01T09:41:55;19.20;99.90
13203;DHT22;6666;51.626;7.530;2023-08-01T09:44:25;19.10;99.90
13203;DHT22;6666;51.626;7.530;2023-08-01T09:46:57;18.70;99.90
13203;DHT22;6666;51.626;7.530;2023-08-01T09:49:27;18.60;99.90
13203;DHT22;6666;51.626;7.530;2023-08-01T09:51:57;18.90;99.90
13203;DHT22;6666;51.626;7.530;2023-08-01T09:54:25;19.20;99.90
13203;DHT22;6666;51.626;7.530;2023-08-01T09:56:54;19.50;99.90
13203;DHT22;6666;51.626;7.530;2023-08-01T09:59:24;19.70;99.90
13203;DHT22;6666;51.626;7.530;2023-08-01T10:01:54;19.70;99.90
13203;DHT22;6666;51.626;7.530;2023-08-01T10:04:25;19.80;99.90
13203;DHT22;6666;51.626;7.530;2023-08-01T10:06:58;19.80;99.90
13203;DHT22;6666;51.626;7.530;2023-08-01T10:09:26;19.90;99.90
13203;DHT22;6666;51.626;7.530;2023-08-01T10:11:57;19.70;99.90
13203;DHT22;6666;51.626;7.530;2023-08-01T10:14:26;19.40;99.90
13203;DHT22;6666;51.626;7.530;2023-08-01T10:16:54;19.10;99.90
13203;DHT22;6666;51.626;7.530;2023-08-01T10:19:24;19.00;99.90
13203;DHT22;6666;51.626;7.530;2023-08-01T10:21:54;19.10;99.90
13203;DHT22;6666;51.626;7.530;2023-08-01T10:24:24;19.30;99.90
13203;DHT22;6666;51.626;7.530;2023-08-01T10:26:53;19.70;99.90
13203;DHT22;6666;51.626;7.530;2023-08-01T10:29:22;20.20;99.90
13203;DHT22;6666;51.626;7.530;2023-08-01T10:32:02;20.30;99.90
13203;DHT22;6666;51.626;7.530;2023-08-01T10:34:30;20.30;99.90
13203;DHT22;6666;51.626;7.530;2023-08-01T10:36:59;20.30;99.90
13203;DHT22;6666;51.626;7.530;2023-08-01T10:39:29;20.30;99.90
13203;DHT22;6666;51.626;7.530;2023-08-01T10:41:58;20.30;99.90
13203;DHT22;6666;51.626;7.530;2023-08-01T10:44:29;20.30;99.90
13203;DHT22;6666;51.626;7.530;2023-08-01T10:47:00;20.30;99.90
13203;DHT22;6666;51.626;7.530;2023-08-01T10:49:34;20.50;99.90
13203;DHT22;6666;51.626;7.530;2023-08-01T10:52:04;20.70;99.90
13203;DHT22;6666;51.626;7.530;2023-08-01T10:54:44;20.80;99.90
13203;DHT22;6666;51.626;7.530;2023-08-01T10:57:16;20.80;99.90
13203;DHT22;6666;51.626;7.530;2023-08-01T10:59:46;20.80;99.90
13203;DHT22;6666;51.626;7.530;2023-08-01T11:02:20;20.50;99.90
13203;DHT22;6666;51.626;7.530;2023-08-01T11:04:58;20.00;99.90
13203;DHT22;6666;51.626;7.530;2023-08-01T11:07:27;20.10;99.90
13203;DHT22;6666;51.626;7.530;2023-08-01T11:10:06;20.00;99.90
13203;DHT22;6666;51.626;7.530;2023-08-01T11:12:35;19.80;99.90
13203;DHT22;6666;51.626;7.530;2023-08-01T11:15:05;19.70;99.90
13203;DHT22;6666;51.626;7.530;2023-08-01T11:17:35;19.40;99.90
13203;DHT22;6666;51.626;7.530;2023-08-01T11:20:05;19.20;99.90
13203;DHT22;6666;51.626;7.530;2023-08-01T11:22:35;19.00;99.90
13203;DHT22;6666;51.626;7.530;2023-08-01T11:25:05;18.90;99.90
13203;DHT22;6666;51.626;7.530;2023-08-01T11:27:34;18.70;99.90
13203;DHT22;6666;51.626;7.530;2023-08-01T11:30:02;18.70;99.90
13203;DHT22;6666;51.626;7.530;2023-08-01T11:32:36;18.70;99.90
13203;DHT22;6666;51.626;7.530;2023-08-01T11:35:05;18.90;99.90
13203;DHT22;6666;51.626;7.530;2023-08-01T11:37:35;18.90;99.90
13203;DHT22;6666;51.626;7.530;2023-08-01T11:40:07;18.80;99.90
13203;DHT22;6666;51.626;7.530;2023-08-01T11:42:35;19.10;99.90
13203;DHT22;6666;51.626;7.530;2023-08-01T11:45:09;19.30;99.90
13203;DHT22;6666;51.626;7.530;2023-08-01T11:47:44;19.50;99.90
13203;DHT22;6666;51.626;7.530;2023-08-01T11:50:13;19.60;99.90
13203;DHT22;6666;51.626;7.530;2023-08-01T11:52:46;19.80;99.90
13203;DHT22;6666;51.626;7.530;2023-08-01T11:55:21;20.00;99.90
13203;DHT22;6666;51.626;7.530;2023-08-01T11:57:53;19.80;99.90
13203;DHT22;6666;51.626;7.530;2023-08-01T12:00:23;20.00;99.90
13203;DHT22;6666;51.626;7.530;2023-08-01T12:02:51;20.20;99.90
13203;DHT22;6666;51.626;7.530;2023-08-01T12:05:23;20.60;99.90
13203;DHT22;6666;51.626;7.530;2023-08-01T12:07:52;20.50;99.90
13203;DHT22;6666;51.626;7.530;2023-08-01T12:10:21;20.60;99.90
13203;DHT22;6666;51.626;7.530;2023-08-01T12:12:50;20.60;99.90
13203;DHT22;6666;51.626;7.530;2023-08-01T12:15:19;20.70;99.90
13203;DHT22;6666;51.626;7.530;2023-08-01T12:17:47;20.70;99.90
13203;DHT22;6666;51.626;7.530;2023-08-01T12:20:15;20.80;99.90
13203;DHT22;6666;51.626;7.530;2023-08-01T12:22:43;21.20;99.90
13203;DHT22;6666;51.626;7.530;2023-08-01T12:25:11;21.30;99.90
13203;DHT22;6666;51.626;7.530;2023-08-01T12:27:41;21.20;99.90
13203;DHT22;6666;51.626;7.530;2023-08-01T12:30:10;20.80;99.90
13203;DHT22;6666;51.626;7.530;2023-08-01T12:32:38;20.90;99.90
13203;DHT22;6666;51.626;7.530;2023-08-01T12:35:07;21.00;99.90
13203;DHT22;6666;51.626;7.530;2023-08-01T12:37:36;21.10;99.90
13203;DHT22;6666;51.626;7.530;2023-08-01T12:40:05;21.00;99.90
13203;DHT22;6666;51.626;7.530;2023-08-01T12:42:34;20.80;99.90
13203;DHT22;6666;51.626;7.530;2023-08-01T12:45:04;20.70;99.90
13203;DHT22;6666;51.626;7.530;2023-08-01T12:47:32;20.80;99.90
13203;DHT22;6666;51.626;7.530;2023-08-01T12:50:01;20.90;99.90
13203;DHT22;6666;51.626;7.530;2023-08-01T12:52:29;20.90;99.90
13203;DHT22;6666;51.626;7.530;2023-08-01T12:54:57;20.80;99.90
13203;DHT22;6666;51.626;7.530;2023-08-01T12:57:25;21.10;99.90
13203;DHT22;6666;51.626;7.530;2023-08-01T12:59:57;21.00;99.90
13203;DHT22;6666;51.626;7.530;2023-08-01T13:02:26;20.80;99.90
13203;DHT22;6666;51.626;7.530;2023-08-01T13:04:54;20.70;99.90
13203;DHT22;6666;51.626;7.530;2023-08-01T13:07:22;20.70;99.90
13203;DHT22;6666;51.626;7.530;2023-08-01T13:09:51;20.90;99.90
13203;DHT22;6666;51.626;7.530;2023-08-01T13:12:19;20.80;99.90
13203;DHT22;6666;51.626;7.530;2023-08-01T13:14:47;21.20;99.90
13203;DHT22;6666;51.626;7.530;2023-08-01T13:17:17;21.40;99.90
13203;DHT22;6666;51.626;7.530;2023-08-01T13:19:47;21.50;99.90
13203;DHT22;6666;51.626;7.530;2023-08-01T13:22:15;21.30;99.90
13203;DHT22;6666;51.626;7.530;2023-08-01T13:24:45;21.10;99.90
13203;DHT22;6666;51.626;7.530;2023-08-01T13:27:13;21.10;99.90
13203;DHT22;6666;51.626;7.530;2023-08-01T13:29:41;21.30;99.90
13203;DHT22;6666;51.626;7.530;2023-08-01T13:32:10;21.10;99.90
13203;DHT22;6666;51.626;7.530;2023-08-01T13:34:38;21.10;99.90
13203;DHT22;6666;51.626;7.530;2023-08-01T13:37:07;21.10;99.90
13203;DHT22;6666;51.626;7.530;2023-08-01T13:39:36;20.90;99.90
13203;DHT22;6666;51.626;7.530;2023-08-01T13:42:05;21.00;99.90
13203;DHT22;6666;51.626;7.530;2023-08-01T13:44:33;21.20;99.90
13203;DHT22;6666;51.626;7.530;2023-08-01T13:47:01;21.50;99.90
13203;DHT22;6666;51.626;7.530;2023-08-01T13:49:30;21.40;99.90
13203;DHT22;6666;51.626;7.530;2023-08-01T13:51:59;21.40;99.90
13203;DHT22;6666;51.626;7.530;2023-08-01T13:54:29;21.40;99.90
13203;DHT22;6666;51.626;7.530;2023-08-01T13:56:57;21.50;99.90
13203;DHT22;6666;51.626;7.530;2023-08-01T13:59:25;21.40;99.90
13203;DHT22;6666;51.626;7.530;2023-08-01T14:01:53;21.30;99.90
13203;DHT22;6666;51.626;7.530;2023-08-01T14:04:21;21.50;99.90
13203;DHT22;6666;51.626;7.530;2023-08-01T14:06:49;21.30;99.90
13203;DHT22;6666;51.626;7.530;2023-08-01T14:09:18;21.30;99.90
13203;DHT22;6666;51.626;7.530;2023-08-01T14:11:47;21.30;99.90
13203;DHT22;6666;51.626;7.530;2023-08-01T14:14:15;21.20;99.90
13203;DHT22;6666;51.626;7.530;2023-08-01T14:16:44;21.30;99.90
13203;DHT22;6666;51.626;7.530;2023-08-01T14:19:12;21.50;99.90
13203;DHT22;6666;51.626;7.530;2023-08-01T14:21:40;21.70;99.90
13203;DHT22;6666;51.626;7.530;2023-08-01T14:24:08;21.50;99.90
13203;DHT22;6666;51.626;7.530;2023-08-01T14:26:36;21.60;99.90
13203;DHT22;6666;51.626;7.530;2023-08-01T14:36:58;21.90;99.90
13203;DHT22;6666;51.626;7.530;2023-08-01T14:39:26;21.80;99.90
13203;DHT22;6666;51.626;7.530;2023-08-01T14:41:54;21.70;99.90
13203;DHT22;6666;51.626;7.530;2023-08-01T14:44:25;21.50;99.90
13203;DHT22;6666;51.626;7.530;2023-08-01T14:46:53;21.30;99.90
13203;DHT22;6666;51.626;7.530;2023-08-01T14:49:22;21.40;99.90
13203;DHT22;6666;51.626;7.530;2023-08-01T14:51:50;21.40;99.90
13203;DHT22;6666;51.626;7.530;2023-08-01T14:54:19;21.10;99.90
13203;DHT22;6666;51.626;7.530;2023-08-01T14:57:06;20.90;99.90
13203;DHT22;6666;51.626;7.530;2023-08-01T14:59:35;21.20;99.90
13203;DHT22;6666;51.626;7.530;2023-08-01T15:02:04;21.40;99.90
13203;DHT22;6666;51.626;7.530;2023-08-01T15:04:36;21.30;99.90
13203;DHT22;6666;51.626;7.530;2023-08-01T15:07:04;21.30;99.90
13203;DHT22;6666;51.626;7.530;2023-08-01T15:09:34;21.40;99.90
13203;DHT22;6666;51.626;7.530;2023-08-01T15:12:03;21.60;99.90
13203;DHT22;6666;51.626;7.530;2023-08-01T15:14:31;21.40;99.90
13203;DHT22;6666;51.626;7.530;2023-08-01T15:17:00;21.50;99.90
13203;DHT22;6666;51.626;7.530;2023-08-01T15:19:28;21.40;99.90
13203;DHT22;6666;51.626;7.530;2023-08-01T15:21:56;21.30;99.90
13203;DHT22;6666;51.626;7.530;2023-08-01T15:24:24;21.30;99.90
13203;DHT22;6666;51.626;7.530;2023-08-01T15:26:54;21.40;99.90
13203;DHT22;6666;51.626;7.530;2023-08-01T15:29:22;21.40;99.90
13203;DHT22;6666;51.626;7.530;2023-08-01T15:31:51;21.40;99.90
13203;DHT22;6666;51.626;7.530;2023-08-01T15:34:19;21.40;99.90
13203;DHT22;6666;51.626;7.530;2023-08-01T15:36:48;21.40;99.90
13203;DHT22;6666;51.626;7.530;2023-08-01T15:39:16;21.50;99.90
13203;DHT22;6666;51.626;7.530;2023-08-01T15:41:45;21.50;99.90
13203;DHT22;6666;51.626;7.530;2023-08-01T15:44:15;21.50;99.90
13203;DHT22;6666;51.626;7.530;2023-08-01T15:46:43;21.40;99.90
13203;DHT22;6666;51.626;7.530;2023-08-01T15:49:11;21.40;99.90
13203;DHT22;6666;51.626;7.530;2023-08-01T15:51:39;21.40;99.90
13203;DHT22;6666;51.626;7.530;2023-08-01T15:54:08;21.40;99.90
13203;DHT22;6666;51.626;7.530;2023-08-01T15:56:38;21.30;99.90
13203;DHT22;6666;51.626;7.530;2023-08-01T15:59:08;21.30;99.90
13203;DHT22;6666;51.626;7.530;2023-08-01T16:01:38;21.30;99.90
13203;DHT22;6666;51.626;7.530;2023-08-01T16:04:06;21.20;99.90